KTDR

Panama City

Panama City, Florida, USA
METAR KTDR 181456Z AUTO 03008KT 10SM CLR M01/M10 A3049 RMK AO2 SLP329 T10141098 53008 PWINO FZRANO $
Observed Flight Rules
Jan-18 @ 14:56 UTC (44 minutes ago) Visual Flight Rules
Wind Visibility Clouds
30° at 8 knots 10 miles
  • Clear skies
Temperatures Readings
Current -1°C / 30°F
Dewpoint -10°C / 14°F
Humidity 51%
Altimeter 30.49" Hg
Pressure 1032.9 hPa
Elevation 5
METAR KTDR 181456Z AUTO 03008KT 10SM CLR M01/M10 A3049 RMK AO2 SLP329 T10141098 53008 PWINO FZRANO $
Observed Flight Rules
Jan-18 @ 14:56 UTC
(44 minutes ago)
VFR
Wind Visibility
30° at 8 knots 10 miles
Clouds
  • Clear skies
Temperature Dewpoint
-1°C / 30°F -10°C / 14°F
Humidity Altimeter Pressure
51% 30.49" Hg 1032.9 hPa